Time;durP1;ratioP1;P1;durP2;ratioP2;P2;SDS_P1;SDS_P2;PMS_P1;PMS_P2;Temp;Humidity;BMP_temperature;BMP_pressure;BME280_temperature;BME280_humidity;BME280_pressure;Samples;Min_cycle;Max_cycle;Signal;HPM_P1;HPM_P2
2023/07/15 00:03:02;;;;;;;13.08;7.37;;;;;;;26.55;54.77;99750.59;1750549;80;21357;-79
2023/07/15 00:06:09;;;;;;;11.38;8.00;;;;;;;27.10;53.29;99755.35;1761148;81;21294;-79
2023/07/15 00:09:15;;;;;;;10.03;7.70;;;;;;;26.61;54.35;99753.60;1761129;81;21297;-79
2023/07/15 00:12:21;;;;;;;14.87;8.10;;;;;;;26.43;54.96;99762.18;1759988;81;21299;-80
2023/07/15 00:15:26;;;;;;;10.38;7.15;;;;;;;26.29;55.46;99767.33;1759710;81;21299;-79
2023/07/15 00:18:33;;;;;;;13.48;8.15;;;;;;;26.44;55.02;99767.22;1751806;81;21295;-80
2023/07/15 00:21:39;;;;;;;8.83;6.45;;;;;;;26.34;55.03;99763.08;1747655;82;21345;-79
2023/07/15 00:24:38;;;;;;;12.47;7.75;;;;;;;26.19;55.57;99764.88;1707983;82;21317;-80
2023/07/15 00:27:32;;;;;;;14.70;8.50;;;;;;;25.80;56.52;99764.91;1748095;82;21861;-79
2023/07/15 00:30:37;;;;;;;14.30;7.58;;;;;;;25.91;56.43;99769.87;1761341;81;21294;-80
2023/07/15 00:33:42;;;;;;;8.63;7.67;;;;;;;25.99;56.13;99769.25;1772793;80;21850;-79
2023/07/15 00:36:43;;;;;;;14.10;8.43;;;;;;;26.29;55.30;99763.96;1779273;80;21291;-80
2023/07/15 00:39:36;;;;;;;14.65;8.48;;;;;;;26.31;55.12;99766.48;1740680;82;21311;-80
2023/07/15 00:42:57;;;;;;;9.80;7.45;;;;;;;25.89;56.06;99768.77;1724845;83;21931;-80
2023/07/15 00:46:31;;;;;;;11.53;7.95;;;;;;;25.80;56.34;99775.28;1725798;82;21305;-79
2023/07/15 00:49:39;;;;;;;11.35;7.30;;;;;;;25.79;56.27;99775.84;1716087;83;21914;-80
2023/07/15 00:52:45;;;;;;;12.88;8.03;;;;;;;25.85;56.07;99773.84;1713556;83;21311;-80
2023/07/15 00:55:51;;;;;;;13.40;8.20;;;;;;;25.94;55.67;99772.09;1729901;83;21942;-79
2023/07/15 00:58:58;;;;;;;12.15;8.63;;;;;;;25.94;55.49;99779.10;1727132;83;21308;-80
2023/07/15 01:02:04;;;;;;;14.73;7.83;;;;;;;26.01;55.26;99772.59;1727405;82;22571;-79
2023/07/15 01:05:13;;;;;;;15.95;7.83;;;;;;;25.91;55.33;99774.06;1729427;82;21308;-80
2023/07/15 01:08:18;;;;;;;11.30;7.03;;;;;;;25.95;55.20;99770.96;1726939;82;21359;-79
2023/07/15 01:11:24;;;;;;;10.10;7.05;;;;;;;26.23;54.30;99778.59;1726812;82;21871;-80
2023/07/15 01:14:29;;;;;;;15.18;7.45;;;;;;;26.30;54.01;99778.81;1729081;82;21344;-80
2023/07/15 01:17:34;;;;;;;10.10;7.10;;;;;;;26.51;53.41;99777.55;1706770;82;21340;-80
2023/07/15 01:20:40;;;;;;;14.47;7.80;;;;;;;26.03;54.62;99785.77;1703229;84;21305;-80
2023/07/15 01:23:47;;;;;;;14.07;7.30;;;;;;;25.70;55.92;99781.18;1703336;84;21879;-80
2023/07/15 01:26:52;;;;;;;15.10;8.00;;;;;;;25.70;55.90;99789.58;1703370;84;21300;-80
2023/07/15 01:29:52;;;;;;;12.55;6.83;;;;;;;25.51;56.56;99789.97;1703072;84;21324;-79
2023/07/15 01:32:46;;;;;;;14.23;7.47;;;;;;;25.46;56.81;99790.00;1702451;83;21347;-79
2023/07/15 01:35:55;;;;;;;13.68;7.47;;;;;;;25.24;57.39;99794.00;1703449;84;21312;-80
2023/07/15 01:39:00;;;;;;;13.13;7.85;;;;;;;25.40;57.04;99794.76;1703083;84;21332;-80
2023/07/15 01:42:07;;;;;;;13.55;7.22;;;;;;;25.66;56.30;99798.28;1703202;84;21348;-80
2023/07/15 01:45:13;;;;;;;10.40;7.65;;;;;;;25.40;56.87;99798.13;1703210;84;21939;-79
2023/07/15 01:48:19;;;;;;;11.95;7.40;;;;;;;25.49;56.59;99801.44;1701188;84;21327;-80
2023/07/15 01:51:26;;;;;;;11.05;7.30;;;;;;;25.52;56.39;99812.64;1687405;85;21315;-80
2023/07/15 01:54:32;;;;;;;17.07;7.72;;;;;;;25.78;55.52;99811.13;1687578;84;21318;-79
2023/07/15 01:57:38;;;;;;;10.82;7.08;;;;;;;25.94;54.80;99811.31;1689309;84;21346;-79
2023/07/15 02:00:44;;;;;;;14.15;7.10;;;;;;;25.92;54.81;99819.16;1689031;84;21334;-80
2023/07/15 02:03:52;;;;;;;13.13;6.92;;;;;;;25.61;55.62;99823.52;1691893;84;21327;-79
2023/07/15 02:06:59;;;;;;;18.00;7.40;;;;;;;25.53;55.83;99821.30;1766900;80;21303;-79
2023/07/15 02:09:59;;;;;;;15.85;7.62;;;;;;;25.61;55.63;99823.52;1768309;81;21303;-80
2023/07/15 02:13:13;;;;;;;17.45;7.22;;;;;;;25.70;55.38;99821.79;1857308;76;22982;-80
2023/07/15 02:16:19;;;;;;;11.35;6.62;;;;;;;25.58;55.67;99819.88;1750471;82;21346;-80
2023/07/15 02:19:24;;;;;;;11.85;7.08;;;;;;;25.78;55.17;99823.73;1754480;81;21294;-80
2023/07/15 02:22:31;;;;;;;15.68;6.83;;;;;;;25.85;55.01;99827.06;1735567;82;21320;-80
2023/07/15 02:25:37;;;;;;;8.30;6.37;;;;;;;25.98;54.70;99834.84;1736552;82;22570;-80
2023/07/15 02:28:43;;;;;;;12.07;6.67;;;;;;;26.06;54.54;99837.56;1736341;82;21313;-79
2023/07/15 02:31:49;;;;;;;10.25;6.60;;;;;;;26.28;54.35;99839.38;1735984;82;21350;-80
2023/07/15 02:34:56;;;;;;;9.83;5.97;;;;;;;26.55;53.59;99845.94;1736576;81;21305;-79
2023/07/15 02:38:02;;;;;;;10.85;6.20;;;;;;;26.78;52.90;99851.92;1736493;82;21317;-80
2023/07/15 02:41:07;;;;;;;12.88;6.10;;;;;;;26.94;52.20;99852.02;1736509;82;21322;-80
2023/07/15 02:44:15;;;;;;;14.00;6.60;;;;;;;27.22;51.31;99850.36;1747728;82;21320;-80
2023/07/15 02:47:21;;;;;;;12.80;5.87;;;;;;;27.39;50.95;99853.54;1747838;82;21336;-80
2023/07/15 02:50:26;;;;;;;8.10;6.05;;;;;;;27.66;49.84;99853.47;1747660;81;21309;-79
2023/07/15 02:53:32;;;;;;;12.95;5.70;;;;;;;27.91;49.38;99873.42;1746406;82;21341;-79
2023/07/15 02:56:38;;;;;;;11.30;5.92;;;;;;;28.06;48.72;99873.20;1747898;82;21317;-80
2023/07/15 02:59:45;;;;;;;11.80;6.62;;;;;;;28.35;47.83;99876.47;1746327;82;21308;-80
2023/07/15 03:02:51;;;;;;;14.25;6.17;;;;;;;28.27;47.88;99878.77;1746282;81;21899;-80
2023/07/15 03:05:57;;;;;;;9.58;6.28;;;;;;;28.62;47.15;99882.80;1748174;82;21895;-80
2023/07/15 03:09:04;;;;;;;14.47;6.08;;;;;;;28.90;46.38;99883.15;1747786;82;21333;-80
2023/07/15 03:12:10;;;;;;;8.25;5.70;;;;;;;28.86;46.03;99891.94;1745914;82;21338;-80
2023/07/15 03:15:16;;;;;;;10.10;5.75;;;;;;;29.32;44.99;99888.91;1747972;82;21312;-79
2023/07/15 03:18:25;;;;;;;7.37;5.60;;;;;;;29.15;45.00;99890.90;1748000;82;21974;-79
2023/07/15 03:21:29;;;;;;;9.93;6.00;;;;;;;29.07;45.26;99894.42;1747855;82;21317;-79
2023/07/15 03:24:36;;;;;;;9.30;6.33;;;;;;;29.09;45.04;99885.94;1747410;82;21891;-80
2023/07/15 03:27:44;;;;;;;12.25;5.95;;;;;;;29.20;45.04;99895.85;1746320;82;21345;-79
2023/07/15 03:30:52;;;;;;;14.90;6.47;;;;;;;29.16;44.88;99901.84;1746006;82;21879;-79
2023/07/15 03:33:59;;;;;;;18.60;6.65;;;;;;;29.39;44.34;99897.76;1746011;82;21368;-80
2023/07/15 03:37:05;;;;;;;8.18;5.45;;;;;;;29.26;44.68;99901.64;1716151;83;21646;-79
2023/07/15 03:40:12;;;;;;;7.12;5.17;;;;;;;29.24;44.79;99905.93;1716170;83;21874;-80
2023/07/15 03:43:20;;;;;;;8.20;5.90;;;;;;;29.29;44.72;99900.20;1715539;83;21373;-79
2023/07/15 03:46:25;;;;;;;10.53;6.17;;;;;;;29.40;44.37;99912.93;1716149;83;21932;-79
2023/07/15 03:49:31;;;;;;;11.83;6.22;;;;;;;29.78;43.71;99912.77;1717321;82;21648;-80
2023/07/15 03:52:37;;;;;;;14.20;6.10;;;;;;;29.68;43.70;99919.45;1746024;82;21698;-80
2023/07/15 03:55:44;;;;;;;8.25;5.92;;;;;;;29.55;44.17;99924.53;1747541;82;21329;-79
2023/07/15 03:58:50;;;;;;;10.68;5.90;;;;;;;29.38;44.60;99917.22;1746636;82;21339;-79
2023/07/15 04:01:57;;;;;;;9.45;6.17;;;;;;;29.33;44.83;99924.36;1747487;82;22619;-80
2023/07/15 04:05:02;;;;;;;16.20;6.22;;;;;;;29.42;44.46;99921.92;1747437;82;21878;-81
2023/07/15 04:08:08;;;;;;;14.93;6.50;;;;;;;29.48;44.24;99929.70;1747413;82;21349;-81
2023/07/15 04:11:15;;;;;;;8.58;6.47;;;;;;;29.36;44.28;99936.40;1747492;82;21341;-80
2023/07/15 04:14:21;;;;;;;13.93;6.42;;;;;;;29.14;44.99;99933.70;1732806;82;21557;-80
2023/07/15 04:17:27;;;;;;;11.57;6.30;;;;;;;28.68;45.77;99931.63;1725907;83;21325;-79
2023/07/15 04:20:33;;;;;;;12.80;6.72;;;;;;;28.64;46.00;99933.37;1725878;83;21306;-80
2023/07/15 04:23:38;;;;;;;13.03;6.65;;;;;;;28.59;46.28;99927.84;1725470;83;21326;-80
2023/07/15 04:26:45;;;;;;;11.88;6.90;;;;;;;28.71;45.96;99933.84;1725941;83;21374;-80
2023/07/15 04:29:50;;;;;;;15.08;7.03;;;;;;;28.65;46.33;99936.45;1726056;83;21350;-80
2023/07/15 04:32:56;;;;;;;13.78;7.53;;;;;;;28.60;46.22;99937.94;1724533;83;21330;-80
2023/07/15 04:36:03;;;;;;;20.12;6.95;;;;;;;28.76;45.94;99946.42;1723665;83;21897;-80
2023/07/15 04:39:09;;;;;;;12.28;7.15;;;;;;;28.95;45.53;99945.59;1720791;83;21377;-80
2023/07/15 04:42:15;;;;;;;18.48;6.12;;;;;;;29.03;45.45;99942.92;1721234;83;21337;-80
2023/07/15 04:45:21;;;;;;;12.58;6.70;;;;;;;29.21;45.29;99953.84;1721347;83;21314;-79
2023/07/15 04:48:26;;;;;;;12.00;6.35;;;;;;;28.97;45.68;99953.98;1719946;83;21875;-79
2023/07/15 04:51:30;;;;;;;10.38;6.45;;;;;;;29.38;44.98;99956.66;1724758;83;21302;-79
2023/07/15 04:54:37;;;;;;;12.82;6.40;;;;;;;29.33;44.54;99965.20;1724968;83;21334;-79
2023/07/15 04:57:42;;;;;;;13.85;7.17;;;;;;;29.44;44.54;99966.67;1725923;83;21342;-80
2023/07/15 05:00:51;;;;;;;10.78;5.87;;;;;;;29.66;43.98;99973.90;1725922;83;21342;-79
2023/07/15 05:03:59;;;;;;;9.50;5.72;;;;;;;29.70;44.19;99971.30;1724566;83;21373;-79
2023/07/15 05:07:06;;;;;;;14.47;5.85;;;;;;;29.74;43.40;99977.98;1726776;83;21310;-80
2023/07/15 05:10:26;;;;;;;17.30;6.62;;;;;;;29.68;43.58;99987.67;1725360;83;21973;-80
2023/07/15 05:13:32;;;;;;;11.50;6.28;;;;;;;29.77;43.04;99972.53;1725840;83;21310;-80
2023/07/15 05:16:38;;;;;;;16.20;6.35;;;;;;;29.68;43.48;99989.91;1726024;83;21329;-80
2023/07/15 05:19:44;;;;;;;10.28;6.30;;;;;;;29.73;43.48;99984.17;1725990;83;21365;-80
2023/07/15 05:22:49;;;;;;;15.23;6.75;;;;;;;29.86;43.04;99990.14;1719943;83;21909;-80
2023/07/15 05:25:56;;;;;;;11.63;6.67;;;;;;;29.97;42.76;99991.59;1719896;83;21341;-80
2023/07/15 05:29:02;;;;;;;12.63;6.55;;;;;;;30.16;43.02;99985.33;1721302;83;21663;-80
2023/07/15 05:32:08;;;;;;;20.57;7.05;;;;;;;30.36;42.43;99986.03;1720021;83;21314;-80
2023/07/15 05:35:14;;;;;;;14.23;6.55;;;;;;;30.38;41.75;99990.19;1719941;83;21901;-79
2023/07/15 05:38:19;;;;;;;10.50;5.97;;;;;;;30.54;41.77;99986.47;1721283;83;22601;-79
2023/07/15 05:41:24;;;;;;;12.55;6.00;;;;;;;30.51;41.91;99989.91;1719932;83;21361;-79
2023/07/15 05:44:30;;;;;;;11.33;6.60;;;;;;;30.64;41.52;99991.88;1721099;83;21362;-79
2023/07/15 05:47:37;;;;;;;18.20;6.17;;;;;;;30.83;41.04;99996.55;1721257;83;21309;-79
2023/07/15 05:50:42;;;;;;;12.20;5.65;;;;;;;30.92;40.74;99996.88;1721187;83;21310;-79
2023/07/15 05:53:47;;;;;;;12.23;6.70;;;;;;;30.93;41.36;100001.38;1721117;83;21317;-79
2023/07/15 05:56:53;;;;;;;19.07;6.62;;;;;;;31.15;40.65;99997.73;1719864;83;21334;-79
2023/07/15 05:59:58;;;;;;;15.15;6.55;;;;;;;31.23;39.77;100004.00;1719874;83;21980;-79
2023/07/15 06:03:03;;;;;;;9.00;5.55;;;;;;;31.53;39.42;100010.06;1720461;83;21920;-80
2023/07/15 06:06:09;;;;;;;11.57;5.40;;;;;;;31.88;38.62;100015.92;1719928;83;21366;-79
2023/07/15 06:09:09;;;;;;;11.40;5.80;;;;;;;32.05;38.36;100018.25;1721455;83;21330;-79
2023/07/15 06:12:16;;;;;;;16.70;5.55;;;;;;;32.07;38.52;100015.08;1721244;83;21313;-79
2023/07/15 06:15:22;;;;;;;16.70;5.53;;;;;;;31.95;38.05;100018.54;1722441;82;21350;-80
2023/07/15 06:18:28;;;;;;;15.55;5.33;;;;;;;31.84;38.72;100013.48;1725554;83;21314;-79
2023/07/15 06:21:35;;;;;;;15.13;5.33;;;;;;;32.22;38.08;100026.53;1726807;83;21313;-79
2023/07/15 06:24:34;;;;;;;7.58;4.87;;;;;;;32.41;36.69;100022.87;1726881;83;21302;-79
2023/07/15 06:27:26;;;;;;;9.08;4.83;;;;;;;32.50;36.51;100024.30;1726882;83;21321;-79
2023/07/15 06:30:13;;;;;;;14.75;5.15;;;;;;;32.36;36.64;100024.98;1726865;83;21314;-79
2023/07/15 06:33:19;;;;;;;9.88;4.42;;;;;;;32.60;35.98;100029.65;1726914;83;21334;-79
2023/07/15 06:36:27;;;;;;;5.67;3.50;;;;;;;32.60;36.30;100021.16;1726158;83;21345;-79
2023/07/15 06:39:32;;;;;;;7.75;3.80;;;;;;;32.78;36.40;100028.52;1726941;83;21314;-79
2023/07/15 06:42:38;;;;;;;11.90;3.90;;;;;;;32.99;35.76;100032.16;1727061;83;21869;-79
2023/07/15 06:45:44;;;;;;;8.45;3.25;;;;;;;32.85;35.77;100041.36;1727206;83;21195;-79
2023/07/15 06:48:50;;;;;;;5.70;3.02;;;;;;;32.98;34.95;100038.41;1725571;83;21314;-79
2023/07/15 06:51:56;;;;;;;7.83;3.30;;;;;;;32.95;34.16;100042.48;1725546;83;21884;-79
2023/07/15 06:55:03;;;;;;;9.30;2.92;;;;;;;32.98;34.26;100043.22;1726946;83;21227;-79
2023/07/15 06:58:10;;;;;;;9.65;3.10;;;;;;;32.95;32.86;100035.40;1727032;83;21325;-80
2023/07/15 07:01:16;;;;;;;9.50;2.65;;;;;;;33.02;32.17;100042.80;1726968;83;21313;-80
2023/07/15 07:04:22;;;;;;;5.85;3.08;;;;;;;33.22;33.18;100037.90;1726982;83;21306;-79
2023/07/15 07:07:28;;;;;;;12.10;2.80;;;;;;;33.23;32.95;100046.64;1727205;83;21310;-79
2023/07/15 07:10:34;;;;;;;7.62;2.60;;;;;;;33.35;33.08;100052.20;1727011;83;21307;-80
2023/07/15 07:13:40;;;;;;;9.88;2.80;;;;;;;33.52;32.80;100050.81;1727170;83;21314;-80
2023/07/15 07:16:45;;;;;;;6.37;2.47;;;;;;;33.45;32.91;100044.22;1726828;82;21333;-80
2023/07/15 07:19:51;;;;;;;12.75;2.50;;;;;;;33.53;32.94;100044.79;1726993;83;21881;-80
2023/07/15 07:22:59;;;;;;;10.10;2.92;;;;;;;33.44;32.43;100055.90;1727045;83;21980;-80
2023/07/15 07:26:05;;;;;;;7.10;2.10;;;;;;;33.50;32.58;100049.73;1726782;83;21368;-80
2023/07/15 07:29:11;;;;;;;3.85;1.92;;;;;;;33.78;32.40;100038.83;1726959;83;21322;-78
2023/07/15 07:32:16;;;;;;;8.03;2.50;;;;;;;33.37;30.65;100061.23;1726994;83;21306;-80
2023/07/15 07:35:22;;;;;;;5.25;2.55;;;;;;;33.54;30.10;100059.80;1726935;83;21884;-80
2023/07/15 07:38:28;;;;;;;4.72;2.50;;;;;;;33.73;30.02;100052.33;1726962;83;21318;-81
2023/07/15 07:41:34;;;;;;;5.87;2.05;;;;;;;33.76;30.30;100043.16;1726968;83;21374;-80
2023/07/15 07:44:39;;;;;;;5.17;2.33;;;;;;;33.76;30.65;100057.34;1726946;83;21335;-79
2023/07/15 07:47:45;;;;;;;6.65;2.83;;;;;;;33.74;31.12;100066.20;1727767;83;21314;-79
2023/07/15 07:50:50;;;;;;;11.68;3.00;;;;;;;33.73;30.59;100063.09;1727095;83;21297;-79
2023/07/15 07:53:57;;;;;;;7.03;2.77;;;;;;;33.79;30.15;100070.27;1726954;83;21321;-79
2023/07/15 07:57:02;;;;;;;6.40;2.83;;;;;;;33.66;30.17;100055.70;1726245;83;21988;-79
2023/07/15 08:00:08;;;;;;;8.78;2.80;;;;;;;33.86;30.29;100058.39;1726952;83;21896;-79
2023/07/15 08:03:12;;;;;;;9.20;2.30;;;;;;;33.77;29.06;100059.00;1727806;83;21330;-79
2023/07/15 08:06:18;;;;;;;7.30;2.25;;;;;;;33.97;29.60;100061.72;1726883;83;21329;-79
2023/07/15 08:09:26;;;;;;;7.17;1.62;;;;;;;34.09;28.87;100070.36;1727170;83;21302;-79
2023/07/15 08:12:32;;;;;;;7.65;1.52;;;;;;;34.21;28.96;100066.23;1726626;83;21350;-80
2023/07/15 08:15:37;;;;;;;6.10;1.87;;;;;;;34.47;28.97;100063.28;1726980;83;21299;-79
2023/07/15 08:18:44;;;;;;;5.42;1.82;;;;;;;34.66;28.31;100057.74;1726888;82;21373;-79
2023/07/15 08:21:50;;;;;;;7.28;2.15;;;;;;;34.48;29.23;100064.94;1727040;83;21330;-79
2023/07/15 08:24:54;;;;;;;7.25;2.15;;;;;;;34.76;28.53;100066.69;1727037;83;21358;-79
2023/07/15 08:27:59;;;;;;;6.35;1.50;;;;;;;35.07;28.78;100068.34;1726131;83;21370;-79
2023/07/15 08:31:05;;;;;;;7.20;1.92;;;;;;;34.82;28.70;100065.92;1727030;83;21337;-79
2023/07/15 08:34:12;;;;;;;10.75;1.80;;;;;;;34.84;28.31;100070.06;1727033;83;21310;-79
2023/07/15 08:37:17;;;;;;;4.90;1.87;;;;;;;34.45;27.98;100073.30;1726559;83;21350;-80
2023/07/15 08:40:22;;;;;;;11.10;2.33;;;;;;;34.18;28.57;100072.58;1726951;83;21334;-79
2023/07/15 08:43:28;;;;;;;8.38;1.92;;;;;;;33.81;28.93;100069.33;1726314;83;21670;-80
2023/07/15 08:46:35;;;;;;;4.90;1.70;;;;;;;33.96;28.74;100061.48;1726880;83;21346;-79
2023/07/15 08:49:42;;;;;;;9.30;1.82;;;;;;;34.02;28.47;100068.66;1727364;83;21279;-79
2023/07/15 08:52:47;;;;;;;8.33;1.90;;;;;;;33.90;28.31;100069.90;1727793;83;21318;-79
2023/07/15 08:55:53;;;;;;;5.17;1.32;;;;;;;33.71;28.61;100072.53;1727414;83;21302;-80
2023/07/15 08:58:59;;;;;;;7.17;1.47;;;;;;;33.68;28.87;100063.86;1725674;83;21980;-79
2023/07/15 09:02:04;;;;;;;10.43;1.72;;;;;;;34.01;27.74;100058.45;1726920;83;21373;-79
2023/07/15 09:05:12;;;;;;;8.13;1.70;;;;;;;33.85;27.87;100065.83;1727111;83;21327;-80
2023/07/15 09:08:19;;;;;;;7.47;1.52;;;;;;;33.69;27.47;100071.19;1726278;83;21869;-79
2023/07/15 09:11:25;;;;;;;9.28;2.12;;;;;;;33.71;27.47;100069.70;1727170;83;22613;-79
2023/07/15 09:14:31;;;;;;;5.25;1.77;;;;;;;33.58;27.59;100055.95;1726032;83;21211;-79
2023/07/15 09:17:39;;;;;;;13.90;1.80;;;;;;;33.57;27.93;100074.73;1726795;83;21937;-79
2023/07/15 09:20:46;;;;;;;3.20;1.42;;;;;;;33.94;27.12;100072.31;1726238;82;21340;-79
2023/07/15 09:23:52;;;;;;;7.53;1.70;;;;;;;33.89;26.94;100055.48;1726878;83;21328;-79
2023/07/15 09:27:02;;;;;;;3.55;1.70;;;;;;;34.08;27.33;100059.60;1727077;83;21869;-79
2023/07/15 09:30:08;;;;;;;3.42;1.67;;;;;;;33.95;27.68;100064.08;1725798;83;21382;-78
2023/07/15 09:33:13;;;;;;;8.80;1.62;;;;;;;33.88;27.69;100065.13;1726851;83;21330;-79
2023/07/15 09:36:20;;;;;;;3.17;1.90;;;;;;;34.05;26.72;100065.12;1725457;83;21310;-79
2023/07/15 09:39:28;;;;;;;6.20;1.87;;;;;;;33.87;26.02;100059.22;1727279;83;21373;-79
2023/07/15 09:42:34;;;;;;;3.83;1.70;;;;;;;33.61;27.01;100079.16;1727399;83;21311;-79
2023/07/15 09:45:47;;;;;;;5.10;1.77;;;;;;;33.97;26.88;100075.91;1726934;83;21603;-79
2023/07/15 09:48:54;;;;;;;9.50;1.77;;;;;;;34.16;26.18;100072.66;1726221;83;21318;-79
2023/07/15 09:52:00;;;;;;;5.10;1.55;;;;;;;33.95;26.06;100069.16;1726881;83;21330;-79
2023/07/15 09:55:06;;;;;;;5.45;1.60;;;;;;;34.05;26.68;100066.53;1725637;83;21222;-79
2023/07/15 09:58:25;;;;;;;12.03;1.65;;;;;;;34.19;24.67;100065.73;1726661;83;21346;-79
2023/07/15 10:01:50;;;;;;;2.72;1.42;;;;;;;34.44;24.45;100073.03;1726842;83;21314;-79
2023/07/15 10:04:57;;;;;;;3.92;1.50;;;;;;;34.38;24.71;100075.83;1726944;83;21314;-79
2023/07/15 10:08:03;;;;;;;3.67;1.20;;;;;;;34.34;25.67;100077.09;1726804;83;21310;-79
2023/07/15 10:11:10;;;;;;;2.87;1.12;;;;;;;34.63;24.53;100087.68;1727350;83;21322;-79
2023/07/15 10:14:16;;;;;;;4.95;1.40;;;;;;;34.59;24.85;100078.18;1726822;83;21234;-79
2023/07/15 10:17:23;;;;;;;4.15;1.30;;;;;;;34.44;24.66;100085.81;1726850;83;21317;-79
2023/07/15 10:20:31;;;;;;;2.92;1.50;;;;;;;34.43;24.51;100082.14;1727250;82;21358;-79
2023/07/15 10:23:37;;;;;;;4.97;1.55;;;;;;;34.29;24.35;100069.59;1726823;83;21306;-79
2023/07/15 10:26:43;;;;;;;3.42;1.67;;;;;;;34.37;24.26;100072.75;1727092;83;22587;-79
2023/07/15 10:29:49;;;;;;;4.72;1.50;;;;;;;34.63;24.43;100064.96;1703667;83;21968;-79
2023/07/15 10:33:11;;;;;;;3.70;1.40;;;;;;;34.74;25.44;100065.39;1725549;83;21341;-79
2023/07/15 10:36:18;;;;;;;5.60;1.85;;;;;;;34.81;25.57;100064.23;1727047;83;21329;-79
2023/07/15 10:39:26;;;;;;;4.47;1.10;;;;;;;34.79;24.85;100082.23;1725609;83;21369;-79
2023/07/15 10:42:31;;;;;;;2.98;1.45;;;;;;;34.69;24.83;100075.53;1727282;83;21375;-80
2023/07/15 10:45:49;;;;;;;8.85;2.00;;;;;;;34.74;24.60;100076.16;1726510;83;21377;-79
2023/07/15 10:48:56;;;;;;;2.05;1.30;;;;;;;34.75;24.73;100070.71;1707537;83;21274;-81
2023/07/15 10:52:02;;;;;;;4.55;1.37;;;;;;;34.83;24.89;100054.20;1727097;83;21326;-80
2023/07/15 10:55:08;;;;;;;8.28;1.65;;;;;;;34.74;24.61;100069.05;1727044;83;21876;-80
2023/07/15 10:58:16;;;;;;;6.42;1.52;;;;;;;34.63;24.36;100057.86;1727037;83;21318;-81
2023/07/15 11:01:22;;;;;;;4.33;1.30;;;;;;;34.41;23.24;100065.22;1726185;83;21373;-80
2023/07/15 11:04:28;;;;;;;2.75;0.95;;;;;;;34.47;24.59;100062.45;1727053;83;21318;-80
2023/07/15 11:07:35;;;;;;;3.67;1.40;;;;;;;34.47;22.28;100063.87;1727119;83;21897;-80
2023/07/15 11:10:43;;;;;;;2.85;1.22;;;;;;;34.24;22.66;100055.59;1726396;83;21318;-81
2023/07/15 11:13:49;;;;;;;3.52;1.37;;;;;;;34.52;22.82;100065.92;1727013;83;21318;-80
2023/07/15 11:16:56;;;;;;;3.15;1.25;;;;;;;34.67;23.45;100071.59;1725650;83;21949;-81
2023/07/15 11:20:05;;;;;;;1.55;1.07;;;;;;;34.51;24.31;100063.44;1726405;83;21201;-80
2023/07/15 11:23:09;;;;;;;2.40;1.00;;;;;;;34.36;22.59;100064.00;1724505;82;21333;-79
2023/07/15 11:26:16;;;;;;;7.47;1.72;;;;;;;34.68;22.44;100069.61;1721328;83;21313;-79
2023/07/15 11:29:30;;;;;;;3.22;1.35;;;;;;;34.62;23.41;100058.19;1721186;83;21896;-79
2023/07/15 11:32:37;;;;;;;3.45;1.10;;;;;;;34.77;23.51;100071.78;1721267;83;21888;-79
2023/07/15 11:35:44;;;;;;;2.30;1.30;;;;;;;34.75;23.36;100063.61;1719923;83;21873;-79
2023/07/15 11:38:43;;;;;;;3.15;1.20;;;;;;;34.88;23.22;100058.85;1717735;83;21863;-79
2023/07/15 11:41:49;;;;;;;1.98;1.10;;;;;;;34.72;24.00;100047.25;1700563;84;21304;-79
2023/07/15 11:44:56;;;;;;;5.05;1.37;;;;;;;34.72;24.00;100047.25;1710050;84;21336;-79
2023/07/15 11:48:03;;;;;;;2.58;1.10;;;;;;;34.40;24.43;100050.78;1710060;84;21332;-79
2023/07/15 11:51:15;;;;;;;9.55;1.92;;;;;;;34.67;23.40;100047.45;1709102;84;21308;-79
2023/07/15 11:54:21;;;;;;;4.05;1.27;;;;;;;34.87;23.33;100044.41;1715793;83;21334;-78
2023/07/15 11:57:34;;;;;;;2.00;1.20;;;;;;;34.84;23.07;100055.86;1721368;83;21314;-79
2023/07/15 12:00:42;;;;;;;7.05;1.12;;;;;;;34.91;23.09;100056.72;1720782;83;21361;-79
2023/07/15 12:03:50;;;;;;;3.83;1.10;;;;;;;35.01;23.04;100064.06;1722452;83;21840;-79
2023/07/15 12:06:59;;;;;;;3.98;1.40;;;;;;;34.96;23.04;100051.45;1721274;83;21310;-79
2023/07/15 12:13:29;;;;;;;7.03;1.20;;;;;;;34.69;23.58;100070.67;1725914;83;21310;-79
2023/07/15 12:16:34;;;;;;;1.57;1.02;;;;;;;34.70;23.56;100043.93;1725487;83;21381;-80
2023/07/15 12:19:39;;;;;;;3.10;1.20;;;;;;;34.63;23.59;100050.77;1724569;83;21350;-79
2023/07/15 12:22:47;;;;;;;8.80;1.65;;;;;;;34.73;24.12;100048.94;1731831;82;21344;-80
2023/07/15 12:25:54;;;;;;;3.17;1.30;;;;;;;34.87;24.61;100051.52;1747361;82;21293;-80
2023/07/15 12:29:01;;;;;;;3.22;1.15;;;;;;;34.76;23.31;100045.38;1747467;82;21313;-79
2023/07/15 12:32:07;;;;;;;4.75;1.32;;;;;;;34.68;22.24;100060.50;1746054;82;21353;-79
2023/07/15 12:35:13;;;;;;;2.67;1.02;;;;;;;34.60;23.31;100066.23;1746064;82;21345;-79
2023/07/15 12:38:18;;;;;;;4.37;1.35;;;;;;;34.62;23.70;100061.85;1745929;82;21321;-79
2023/07/15 12:41:23;;;;;;;2.80;1.25;;;;;;;34.48;21.90;100058.44;1746652;82;21353;-79
2023/07/15 12:44:29;;;;;;;3.83;1.55;;;;;;;34.44;22.56;100054.58;1745965;82;21341;-80
2023/07/15 12:47:35;;;;;;;9.93;1.22;;;;;;;34.31;22.72;100057.92;1746611;82;21348;-79
2023/07/15 12:50:44;;;;;;;3.67;1.17;;;;;;;34.68;23.14;100049.73;1747392;82;21313;-79
2023/07/15 12:53:50;;;;;;;4.50;1.47;;;;;;;34.64;24.12;100061.53;1747558;82;21786;-79
2023/07/15 12:56:57;;;;;;;13.08;1.70;;;;;;;34.94;22.66;100052.37;1745888;82;21309;-79
2023/07/15 13:00:05;;;;;;;8.13;1.60;;;;;;;34.82;23.03;100048.28;1746057;82;21337;-79
2023/07/15 13:03:04;;;;;;;14.60;1.77;;;;;;;34.96;22.35;100048.05;1746650;82;21324;-80
2023/07/15 13:06:10;;;;;;;3.22;1.10;;;;;;;34.51;22.37;100064.27;1747484;82;21306;-79
2023/07/15 13:09:15;;;;;;;6.00;1.35;;;;;;;34.40;22.85;100056.47;1747335;82;21301;-79
2023/07/15 13:12:21;;;;;;;2.62;1.20;;;;;;;34.66;22.70;100058.58;1746436;82;21313;-79
2023/07/15 13:15:26;;;;;;;10.53;1.20;;;;;;;34.74;22.61;100037.81;1747437;82;21880;-79
2023/07/15 13:18:32;;;;;;;6.42;1.50;;;;;;;34.83;22.52;100044.27;1746406;82;21391;-79
2023/07/15 13:21:39;;;;;;;2.80;1.20;;;;;;;35.04;22.55;100046.30;1746823;82;21353;-79
2023/07/15 13:24:44;;;;;;;5.50;1.55;;;;;;;34.78;23.17;100038.78;1730348;82;21330;-79
2023/07/15 13:27:49;;;;;;;2.62;1.15;;;;;;;34.65;23.24;100027.69;1724522;83;21337;-80
2023/07/15 13:30:56;;;;;;;6.33;1.10;;;;;;;34.48;23.18;100047.91;1724511;83;21341;-79
2023/07/15 13:33:55;;;;;;;8.70;1.10;;;;;;;34.53;23.12;100046.28;1724765;83;21346;-79
2023/07/15 13:37:01;;;;;;;1.50;1.10;;;;;;;34.40;23.90;100049.37;1725815;83;21317;-79
2023/07/15 13:40:09;;;;;;;3.08;1.20;;;;;;;34.03;24.17;100031.42;1725788;83;21872;-80
2023/07/15 13:43:14;;;;;;;7.90;1.32;;;;;;;34.34;23.40;100030.25;1724565;83;21365;-80
2023/07/15 13:46:19;;;;;;;2.75;1.10;;;;;;;34.22;23.57;100040.93;1725908;83;21310;-79
2023/07/15 13:49:26;;;;;;;3.27;1.15;;;;;;;33.52;24.29;100028.95;1725888;83;21337;-79
2023/07/15 13:52:33;;;;;;;2.47;1.30;;;;;;;33.72;25.00;100027.40;1725096;83;21365;-80
2023/07/15 13:55:39;;;;;;;2.77;0.95;;;;;;;33.73;24.50;100029.05;1723740;83;21314;-79
2023/07/15 13:58:45;;;;;;;3.42;1.25;;;;;;;33.78;23.53;100025.20;1721243;83;21334;-79
2023/07/15 14:01:50;;;;;;;1.92;1.00;;;;;;;33.82;23.10;100033.29;1721098;83;21350;-79
2023/07/15 14:04:56;;;;;;;2.25;1.15;;;;;;;33.95;23.53;100019.52;1721485;83;21314;-80
2023/07/15 14:08:02;;;;;;;5.10;1.30;;;;;;;33.93;24.25;100030.94;1721277;83;21765;-78
2023/07/15 14:11:07;;;;;;;22.65;2.33;;;;;;;34.11;24.35;100020.36;1723863;83;21302;-80
2023/07/15 14:14:15;;;;;;;5.95;1.00;;;;;;;33.96;24.33;100016.09;1723321;82;21338;-80
2023/07/15 14:17:21;;;;;;;12.63;1.95;;;;;;;33.91;24.37;100016.24;1766953;81;21296;-80
2023/07/15 14:20:27;;;;;;;3.37;1.35;;;;;;;33.68;25.40;100022.16;1768198;81;21300;-80
2023/07/15 14:23:32;;;;;;;4.53;1.70;;;;;;;33.74;24.47;100027.91;1766984;81;21317;-80
2023/07/15 14:26:38;;;;;;;3.65;1.00;;;;;;;33.46;24.57;100016.14;1756160;81;21637;-79
2023/07/15 14:29:43;;;;;;;11.25;1.30;;;;;;;33.43;24.77;100033.81;1753596;82;22484;-79